Farmers, Kentucky
Current Conditions -  °F | °C
As of 3:50 PM on Thursday 27 Nov 2014 (Local Time) from KSYM Reporting Station
Overcast Overcast  
Wind Chill: 30°   Ceiling: 3300
Heat Index: 34°   Visibility: 10mi
Dew Point: 21°   Wind: 5mph
Humidity: 60%   Direction: NA
Pressure: 30.3"   Gusts: NA
Location:  38.14°N, 83.55°W
Report Text: KSYM 272050Z AUTO VRB04KT 10SM BKN033 BKN042 OVC050 01/M06 A3030 RMK AO2
Loading
Personal Weather Stations






























Interactive Weather Map New forecast layout! Learn more

10-Day Weather Forecast

Advertisements
Track Severe Weather on mobile